Time;durP1;ratioP1;P1;durP2;ratioP2;P2;SDS_P1;SDS_P2;PMS_P1;PMS_P2;Temp;Humidity;BMP_temperature;BMP_pressure;BME280_temperature;BME280_humidity;BME280_pressure;Samples;Min_cycle;Max_cycle;Signal;HPM_P1;HPM_P2
2021/04/09 00:00:17;;;;;;;1999.90;999.90;;;4.80;99.90;;;;;;5052215;28;20906;-63
2021/04/09 00:02:43;;;;;;;1999.90;999.90;;;4.80;99.90;;;;;;5052370;28;20578;-63
2021/04/09 00:05:11;;;;;;;1999.90;999.90;;;4.80;99.90;;;;;;5052177;28;20401;-64
2021/04/09 00:07:36;;;;;;;1999.90;999.90;;;4.80;99.90;;;;;;5052206;28;20406;-63
2021/04/09 00:10:04;;;;;;;1999.90;999.90;;;4.80;99.90;;;;;;5052076;28;20448;-64
2021/04/09 00:12:33;;;;;;;1999.90;999.90;;;4.70;99.90;;;;;;5052412;28;20181;-64
2021/04/09 00:14:59;;;;;;;1999.90;999.90;;;4.80;99.90;;;;;;5051679;28;20175;-64
2021/04/09 00:17:24;;;;;;;1999.90;999.90;;;4.70;99.90;;;;;;5051762;28;20417;-63
2021/04/09 00:19:50;;;;;;;1999.90;999.90;;;4.60;99.90;;;;;;5052277;28;20203;-63
2021/04/09 00:22:16;;;;;;;1999.90;999.90;;;4.50;99.90;;;;;;5051889;28;20168;-64
2021/04/09 00:24:41;;;;;;;1999.90;999.90;;;4.40;99.90;;;;;;5051828;28;20247;-63
2021/04/09 00:27:07;;;;;;;1999.90;999.90;;;4.50;99.90;;;;;;5051425;28;20187;-63
2021/04/09 00:29:33;;;;;;;1999.90;999.90;;;4.40;99.90;;;;;;5051301;28;20284;-63
2021/04/09 00:31:58;;;;;;;1999.90;999.90;;;4.40;99.90;;;;;;5051513;28;20447;-64
2021/04/09 00:34:24;;;;;;;1999.90;999.90;;;4.40;99.90;;;;;;5051554;28;20222;-64
2021/04/09 00:36:49;;;;;;;1999.90;999.90;;;4.40;99.90;;;;;;5051268;28;20171;-64
2021/04/09 00:39:15;;;;;;;1999.90;999.90;;;4.30;99.90;;;;;;5051567;28;20199;-63
2021/04/09 00:41:41;;;;;;;1999.90;999.90;;;4.20;99.90;;;;;;5051854;28;20656;-63
2021/04/09 00:44:08;;;;;;;1999.90;999.90;;;4.30;99.90;;;;;;5051449;28;20254;-63
2021/04/09 00:46:34;;;;;;;1999.90;999.90;;;4.20;99.90;;;;;;5051370;28;20175;-64
2021/04/09 00:49:00;;;;;;;1999.90;999.90;;;4.10;99.90;;;;;;5054432;28;20564;-64
2021/04/09 00:51:25;;;;;;;1999.90;999.90;;;4.20;99.90;;;;;;5055341;28;20186;-63
2021/04/09 00:53:51;;;;;;;1999.90;999.90;;;4.20;99.90;;;;;;5055244;28;20174;-63
2021/04/09 00:56:20;;;;;;;1999.90;999.90;;;4.20;99.90;;;;;;5055423;28;20206;-63
2021/04/09 00:58:46;;;;;;;1999.90;999.90;;;4.20;99.90;;;;;;5055406;28;20659;-64
2021/04/09 01:01:12;;;;;;;1999.90;999.90;;;4.20;99.90;;;;;;5055095;28;20176;-63
2021/04/09 01:03:38;;;;;;;1999.90;999.90;;;4.10;99.90;;;;;;5055284;28;20788;-63
2021/04/09 01:06:04;;;;;;;1999.90;999.90;;;4.00;99.90;;;;;;5055501;28;20410;-63
2021/04/09 01:08:30;;;;;;;1999.90;999.90;;;3.90;99.90;;;;;;5054964;28;20448;-63
2021/04/09 01:10:56;;;;;;;1999.90;999.90;;;4.00;99.90;;;;;;5054759;28;20549;-63
2021/04/09 01:13:22;;;;;;;1999.90;999.90;;;3.90;99.90;;;;;;5054662;28;20569;-63
2021/04/09 01:15:48;;;;;;;1999.90;999.90;;;3.90;99.90;;;;;;5054479;28;20552;-63
2021/04/09 01:18:30;;;;;;;1999.90;999.90;;;3.90;99.90;;;;;;5054542;28;20190;-64
2021/04/09 01:21:07;;;;;;;1999.90;999.90;;;3.90;99.90;;;;;;5054830;28;20249;-63
2021/04/09 01:24:05;;;;;;;1999.90;999.90;;;3.90;99.90;;;;;;5054512;28;20183;-63
2021/04/09 01:27:09;;;;;;;1999.90;999.90;;;3.90;99.90;;;;;;5054355;28;20171;-64
2021/04/09 01:30:00;;;;;;;1999.90;999.90;;;4.00;99.90;;;;;;5048832;28;20215;-63
2021/04/09 01:32:26;;;;;;;1999.90;999.90;;;4.00;99.90;;;;;;5055346;28;20179;-63
2021/04/09 01:34:56;;;;;;;1999.90;999.90;;;3.90;99.90;;;;;;5054098;28;20512;-64
2021/04/09 01:37:26;;;;;;;1999.90;999.90;;;3.90;99.90;;;;;;5054331;28;20410;-63
2021/04/09 01:40:20;;;;;;;1999.90;999.90;;;4.00;99.90;;;;;;5054622;28;20200;-63
2021/04/09 01:42:52;;;;;;;1999.90;999.90;;;4.00;99.90;;;;;;5054286;28;20175;-64
2021/04/09 01:45:21;;;;;;;1999.90;999.90;;;4.10;99.90;;;;;;5054018;28;20255;-63
2021/04/09 01:47:48;;;;;;;1999.90;999.90;;;4.00;99.90;;;;;;5054119;28;20409;-64
2021/04/09 01:50:16;;;;;;;1999.90;999.90;;;4.00;99.90;;;;;;5053979;28;20199;-63
2021/04/09 01:52:43;;;;;;;1999.90;999.90;;;4.00;99.90;;;;;;5055149;28;20172;-62
2021/04/09 01:55:11;;;;;;;1999.90;999.90;;;4.10;99.90;;;;;;5054928;28;20225;-63
2021/04/09 01:57:39;;;;;;;1999.90;999.90;;;4.10;99.90;;;;;;5055429;28;20270;-63
2021/04/09 02:00:08;;;;;;;1999.90;999.90;;;4.10;99.90;;;;;;5055048;28;20311;-63
2021/04/09 02:02:35;;;;;;;1999.90;999.90;;;4.10;99.90;;;;;;5055258;28;20172;-64
2021/04/09 02:05:01;;;;;;;1999.90;999.90;;;4.10;99.90;;;;;;5053577;28;20515;-64
2021/04/09 02:07:28;;;;;;;1999.90;999.90;;;4.10;99.90;;;;;;5054186;28;20680;-63
2021/04/09 02:09:56;;;;;;;1999.90;999.90;;;4.10;99.90;;;;;;5055166;28;21050;-63
2021/04/09 02:12:22;;;;;;;1999.90;999.90;;;4.10;99.90;;;;;;5055131;28;20406;-63
2021/04/09 02:14:48;;;;;;;1999.90;999.90;;;4.10;99.90;;;;;;5054835;28;20791;-63
2021/04/09 02:17:14;;;;;;;1999.90;999.90;;;4.20;99.90;;;;;;5054661;28;20402;-63
2021/04/09 02:19:41;;;;;;;1999.90;999.90;;;4.20;99.90;;;;;;5053695;28;20824;-64
2021/04/09 02:22:08;;;;;;;1999.90;999.90;;;4.10;99.90;;;;;;5053521;28;20510;-63
2021/04/09 02:24:34;;;;;;;1999.90;999.90;;;4.10;99.90;;;;;;5053356;28;20737;-64
2021/04/09 02:26:59;;;;;;;1999.90;999.90;;;4.10;99.90;;;;;;5053351;28;20489;-63
2021/04/09 02:29:25;;;;;;;1999.90;999.90;;;4.10;99.90;;;;;;5053442;28;20207;-64
2021/04/09 02:31:52;;;;;;;1999.90;999.90;;;4.10;99.90;;;;;;5054291;28;20467;-63
2021/04/09 02:34:19;;;;;;;1999.90;999.90;;;4.10;99.90;;;;;;5053231;28;20477;-63
2021/04/09 02:36:44;;;;;;;1999.90;999.90;;;4.10;99.90;;;;;;5053083;28;20860;-64
2021/04/09 02:39:13;;;;;;;1999.90;999.90;;;4.10;99.90;;;;;;5053006;28;20540;-63
2021/04/09 02:41:42;;;;;;;1999.90;999.90;;;4.10;99.90;;;;;;5053591;28;20263;-63
2021/04/09 02:44:08;;;;;;;1999.90;999.90;;;4.00;99.90;;;;;;5053833;28;20263;-63
2021/04/09 02:46:40;;;;;;;1999.90;999.90;;;4.00;99.90;;;;;;5053096;28;20187;-64
2021/04/09 02:49:14;;;;;;;1999.90;999.90;;;4.00;99.90;;;;;;5052816;28;20951;-63
2021/04/09 02:51:41;;;;;;;1999.90;999.90;;;4.10;99.90;;;;;;5052967;28;20587;-64
2021/04/09 02:54:13;;;;;;;1999.90;999.90;;;4.00;99.90;;;;;;5052853;28;20194;-63
2021/04/09 02:56:40;;;;;;;1999.90;999.90;;;3.90;99.90;;;;;;5052534;28;20402;-63
2021/04/09 02:59:12;;;;;;;1999.90;999.90;;;4.00;99.90;;;;;;5052570;28;20994;-64
2021/04/09 03:01:40;;;;;;;1999.90;999.90;;;4.00;99.90;;;;;;5053197;28;20398;-64
2021/04/09 03:04:07;;;;;;;1999.90;999.90;;;4.00;99.90;;;;;;5053525;28;20428;-63
2021/04/09 03:06:36;;;;;;;1999.90;999.90;;;4.00;99.90;;;;;;5053349;28;20764;-63
2021/04/09 03:09:03;;;;;;;1999.90;999.90;;;4.00;99.90;;;;;;5052497;28;20199;-64
2021/04/09 03:11:29;;;;;;;1999.90;999.90;;;3.90;99.90;;;;;;5051851;28;20994;-63
2021/04/09 03:13:54;;;;;;;1999.90;999.90;;;3.90;99.90;;;;;;5052492;28;20262;-64
2021/04/09 03:16:22;;;;;;;1999.90;999.90;;;4.00;99.90;;;;;;5052226;28;20532;-63
2021/04/09 03:18:48;;;;;;;1999.90;999.90;;;4.10;99.90;;;;;;5052981;28;20238;-63
2021/04/09 03:21:14;;;;;;;1999.90;999.90;;;4.10;99.90;;;;;;5052878;28;20445;-63
2021/04/09 03:23:39;;;;;;;1999.90;999.90;;;4.10;99.90;;;;;;5052314;28;20191;-63
2021/04/09 03:26:05;;;;;;;1999.90;999.90;;;4.00;99.90;;;;;;5051980;28;20289;-63
2021/04/09 03:28:31;;;;;;;1999.90;999.90;;;4.10;99.90;;;;;;5052033;28;20207;-64
2021/04/09 03:30:56;;;;;;;1999.90;999.90;;;4.10;99.90;;;;;;5052237;28;20255;-63
2021/04/09 03:33:24;;;;;;;1999.90;999.90;;;4.20;99.90;;;;;;5052209;28;20714;-64
2021/04/09 03:35:50;;;;;;;1999.90;999.90;;;4.20;99.90;;;;;;5052181;28;20175;-63
2021/04/09 03:38:16;;;;;;;1999.90;999.90;;;4.20;99.90;;;;;;5052277;28;21039;-64
2021/04/09 03:40:42;;;;;;;1999.90;999.90;;;4.20;99.90;;;;;;5052033;28;20403;-63
2021/04/09 03:43:13;;;;;;;1999.90;999.90;;;4.20;99.90;;;;;;5052059;28;20774;-64
2021/04/09 03:45:39;;;;;;;1999.90;999.90;;;4.20;99.90;;;;;;5094128;22;20606;-63
2021/04/09 03:48:05;;;;;;;1999.90;999.90;;;4.30;99.90;;;;;;5050931;28;20930;-65
2021/04/09 03:50:31;;;;;;;1999.90;999.90;;;4.30;99.90;;;;;;5051872;28;20898;-64
2021/04/09 03:52:57;;;;;;;1999.90;999.90;;;4.30;99.90;;;;;;5052043;28;20395;-64
2021/04/09 03:55:23;;;;;;;1999.90;999.90;;;4.40;99.90;;;;;;5051619;28;20175;-65
2021/04/09 03:57:49;;;;;;;1999.90;999.90;;;4.40;99.90;;;;;;5051844;28;20557;-64
2021/04/09 04:00:15;;;;;;;1999.90;999.90;;;4.50;99.90;;;;;;5051812;28;20198;-64
2021/04/09 04:02:41;;;;;;;1999.90;999.90;;;4.40;99.90;;;;;;5051904;28;20891;-65
2021/04/09 04:05:07;;;;;;;1999.90;999.90;;;4.30;99.90;;;;;;5051537;28;20417;-65
2021/04/09 04:07:33;;;;;;;1999.90;999.90;;;4.40;99.90;;;;;;5051673;28;20195;-65
2021/04/09 04:09:58;;;;;;;1999.90;999.90;;;4.40;99.90;;;;;;5051704;28;20477;-66
2021/04/09 04:12:24;;;;;;;1999.90;999.90;;;4.30;99.90;;;;;;5051688;28;20407;-66
2021/04/09 04:14:50;;;;;;;1999.90;999.90;;;4.30;99.90;;;;;;5051524;28;20604;-65
2021/04/09 04:17:15;;;;;;;1999.90;999.90;;;4.20;99.90;;;;;;5051628;28;20304;-64
2021/04/09 04:19:41;;;;;;;1999.90;999.90;;;4.20;99.90;;;;;;5051607;28;20202;-65
2021/04/09 04:22:06;;;;;;;1999.90;999.90;;;4.20;99.90;;;;;;5053576;28;20198;-66
2021/04/09 04:24:32;;;;;;;1999.90;999.90;;;4.30;99.90;;;;;;5055625;28;20163;-65
2021/04/09 04:26:58;;;;;;;1999.90;999.90;;;4.20;99.90;;;;;;5055330;28;20195;-65
2021/04/09 04:29:23;;;;;;;1999.90;999.90;;;4.30;99.90;;;;;;5055922;28;20164;-64
2021/04/09 04:31:49;;;;;;;1999.90;999.90;;;4.30;99.90;;;;;;5055589;28;20190;-65
2021/04/09 04:34:14;;;;;;;1999.90;999.90;;;4.30;99.90;;;;;;5055604;28;20168;-67
2021/04/09 04:36:40;;;;;;;1999.90;999.90;;;4.30;99.90;;;;;;5055147;28;20696;-64
2021/04/09 04:39:06;;;;;;;1999.90;999.90;;;4.40;99.90;;;;;;5055354;28;20656;-64
2021/04/09 04:41:32;;;;;;;1999.90;999.90;;;4.40;99.90;;;;;;5055332;28;20200;-64
2021/04/09 04:43:58;;;;;;;1999.90;999.90;;;4.40;99.90;;;;;;5055348;28;20166;-64
2021/04/09 04:46:24;;;;;;;1999.90;999.90;;;4.40;99.90;;;;;;5054799;28;20528;-65
2021/04/09 04:48:50;;;;;;;1999.90;999.90;;;4.40;99.90;;;;;;5055260;28;20468;-64
2021/04/09 04:51:17;;;;;;;1999.90;999.90;;;4.50;99.90;;;;;;5055165;28;20441;-65
2021/04/09 04:53:42;;;;;;;1999.90;999.90;;;4.50;99.90;;;;;;5055077;28;20230;-64
2021/04/09 04:56:08;;;;;;;1999.90;999.90;;;4.50;99.90;;;;;;5054713;28;20426;-65
2021/04/09 04:58:34;;;;;;;1999.90;999.90;;;4.60;99.90;;;;;;5054991;28;20198;-65
2021/04/09 05:00:59;;;;;;;1999.90;999.90;;;4.60;99.90;;;;;;5055145;28;20172;-67
2021/04/09 05:03:25;;;;;;;1999.90;999.90;;;4.70;99.90;;;;;;5055077;28;20176;-64
2021/04/09 05:05:50;;;;;;;1999.90;999.90;;;4.70;99.90;;;;;;5054591;28;20187;-65
2021/04/09 05:08:16;;;;;;;1999.90;999.90;;;4.70;99.90;;;;;;5054924;28;20209;-65
2021/04/09 05:10:41;;;;;;;1999.90;999.90;;;4.80;99.90;;;;;;5054800;28;20168;-67
2021/04/09 05:13:07;;;;;;;1999.90;999.90;;;4.90;99.90;;;;;;5054831;28;20175;-63
2021/04/09 05:15:33;;;;;;;1999.90;999.90;;;5.00;99.90;;;;;;5054502;28;20554;-65
2021/04/09 05:17:58;;;;;;;1999.90;999.90;;;5.00;99.90;;;;;;5054753;28;20176;-65
2021/04/09 05:20:24;;;;;;;1999.90;999.90;;;5.10;99.90;;;;;;5054556;28;20199;-67
2021/04/09 05:22:49;;;;;;;1999.90;999.90;;;5.10;99.90;;;;;;5054600;28;20599;-64
2021/04/09 05:25:15;;;;;;;1999.90;999.90;;;5.20;99.90;;;;;;5054274;28;20175;-65
2021/04/09 05:27:40;;;;;;;1999.90;999.90;;;5.30;99.90;;;;;;5054463;28;20219;-65
2021/04/09 05:30:07;;;;;;;1999.90;999.90;;;5.30;99.90;;;;;;5054501;28;20178;-67
2021/04/09 05:32:32;;;;;;;1999.90;999.90;;;5.40;99.90;;;;;;5054303;28;20172;-66
2021/04/09 05:34:58;;;;;;;1999.90;999.90;;;5.40;99.90;;;;;;5053450;28;20416;-67
2021/04/09 05:37:23;;;;;;;1999.90;999.90;;;5.40;99.90;;;;;;5054170;28;20258;-67
2021/04/09 05:39:49;;;;;;;1999.90;999.90;;;5.40;99.90;;;;;;5054189;28;20231;-67
2021/04/09 05:42:15;;;;;;;1999.90;999.90;;;5.50;99.90;;;;;;5054300;28;20538;-67
2021/04/09 05:44:41;;;;;;;1999.90;999.90;;;5.50;99.90;;;;;;5054175;28;20661;-67
2021/04/09 05:47:08;;;;;;;1999.90;999.90;;;5.60;99.90;;;;;;5054005;28;20488;-67
2021/04/09 05:49:34;;;;;;;1999.90;999.90;;;5.70;99.90;;;;;;5054088;28;20933;-67
2021/04/09 05:52:05;;;;;;;1999.90;999.90;;;5.70;99.90;;;;;;5054167;28;20410;-66
2021/04/09 05:54:32;;;;;;;1999.90;999.90;;;5.80;99.90;;;;;;5054034;28;20621;-66
2021/04/09 05:56:59;;;;;;;1999.90;999.90;;;5.90;99.90;;;;;;5053734;28;20453;-67
2021/04/09 05:59:25;;;;;;;1999.90;999.90;;;6.00;99.90;;;;;;5053837;28;20454;-66
2021/04/09 06:01:50;;;;;;;1999.90;999.90;;;6.10;99.90;;;;;;5053895;28;20406;-66
2021/04/09 06:04:16;;;;;;;1999.90;999.90;;;6.20;99.90;;;;;;5053900;28;20413;-67
2021/04/09 06:06:42;;;;;;;1999.90;999.90;;;6.20;99.90;;;;;;5053403;28;20217;-67
2021/04/09 06:09:07;;;;;;;1999.90;999.90;;;6.30;99.90;;;;;;5053799;28;20233;-66
2021/04/09 06:11:33;;;;;;;1999.90;999.90;;;6.40;99.90;;;;;;5053733;28;20182;-67
2021/04/09 06:13:59;;;;;;;1999.90;999.90;;;6.50;99.90;;;;;;5053705;28;20305;-67
2021/04/09 06:16:25;;;;;;;1999.90;999.90;;;6.50;99.90;;;;;;5053324;28;20460;-67
2021/04/09 06:18:50;;;;;;;1999.90;999.90;;;6.50;99.90;;;;;;5053553;28;20199;-66
2021/04/09 06:21:16;;;;;;;1999.90;999.90;;;6.50;99.90;;;;;;5053496;28;20160;-66
2021/04/09 06:23:42;;;;;;;1999.90;999.90;;;6.50;99.90;;;;;;5053438;28;20233;-66
2021/04/09 06:26:08;;;;;;;1999.90;999.90;;;6.50;99.90;;;;;;5053242;28;20665;-67
2021/04/09 06:28:33;;;;;;;1999.90;999.90;;;6.50;99.90;;;;;;5053380;28;20663;-67
2021/04/09 06:30:59;;;;;;;1999.90;999.90;;;6.50;99.90;;;;;;5053481;28;20414;-66
2021/04/09 06:33:25;;;;;;;1999.90;999.90;;;6.50;99.90;;;;;;5053312;28;20167;-67
2021/04/09 06:35:51;;;;;;;1999.90;999.90;;;6.60;99.90;;;;;;5052831;28;20402;-66
2021/04/09 06:38:17;;;;;;;1999.90;999.90;;;6.50;99.90;;;;;;5053202;28;20407;-67
2021/04/09 06:40:44;;;;;;;1999.90;999.90;;;6.60;99.90;;;;;;5053292;28;20238;-67
2021/04/09 06:43:11;;;;;;;1999.90;999.90;;;6.70;99.90;;;;;;5053076;28;20197;-65
2021/04/09 06:45:38;;;;;;;1999.90;999.90;;;6.80;99.90;;;;;;5051632;28;20410;-66
2021/04/09 06:48:04;;;;;;;1999.90;999.90;;;6.90;99.90;;;;;;5053071;28;20463;-66
2021/04/09 06:50:30;;;;;;;1999.90;999.90;;;7.00;99.90;;;;;;5052889;28;20418;-66
2021/04/09 06:52:56;;;;;;;1999.90;999.90;;;7.00;99.90;;;;;;5052880;28;20406;-66
2021/04/09 06:55:23;;;;;;;1999.90;999.90;;;7.20;99.90;;;;;;5051318;28;20208;-66
2021/04/09 06:57:50;;;;;;;1999.90;999.90;;;7.40;99.90;;;;;;5052747;28;20430;-66
2021/04/09 07:00:16;;;;;;;1999.90;999.90;;;7.50;99.90;;;;;;5052695;28;20449;-66
2021/04/09 07:02:43;;;;;;;1999.90;999.90;;;7.70;99.90;;;;;;5052770;28;20406;-66
2021/04/09 07:05:10;;;;;;;1999.90;999.90;;;7.80;99.90;;;;;;5052323;28;20481;-66
2021/04/09 07:07:35;;;;;;;1999.90;999.90;;;7.90;99.90;;;;;;5052497;28;20428;-66
2021/04/09 07:10:01;;;;;;;1999.90;999.90;;;8.00;99.90;;;;;;5052725;28;20835;-66
2021/04/09 07:12:29;;;;;;;1999.90;999.90;;;8.20;99.90;;;;;;5052624;28;20556;-66
2021/04/09 07:14:56;;;;;;;1999.90;999.90;;;8.30;99.90;;;;;;5052115;28;20258;-66
2021/04/09 07:17:30;;;;;;;1999.90;999.90;;;8.40;99.90;;;;;;5052413;28;20450;-66
2021/04/09 07:20:16;;;;;;;1999.90;999.90;;;8.60;99.90;;;;;;5052350;28;20965;-66
2021/04/09 07:22:44;;;;;;;1999.90;999.90;;;8.60;99.90;;;;;;5052381;28;20414;-66
2021/04/09 07:25:11;;;;;;;1999.90;999.90;;;8.70;99.90;;;;;;5052050;28;20900;-66
2021/04/09 07:27:38;;;;;;;1999.90;999.90;;;8.80;99.90;;;;;;5052230;28;20429;-66
2021/04/09 07:30:06;;;;;;;1999.90;999.90;;;8.90;99.90;;;;;;5052311;28;20454;-66
2021/04/09 07:32:34;;;;;;;1999.90;999.90;;;8.90;99.90;;;;;;5052151;28;20402;-66
2021/04/09 07:35:11;;;;;;;1999.90;999.90;;;9.10;99.90;;;;;;5051887;28;20420;-66
2021/04/09 07:37:56;;;;;;;1999.90;999.90;;;9.20;99.90;;;;;;5052100;28;20947;-66
2021/04/09 07:40:32;;;;;;;1999.90;999.90;;;9.40;99.90;;;;;;5052020;28;20456;-66
2021/04/09 07:42:59;;;;;;;1999.90;999.90;;;9.40;99.90;;;;;;5052086;28;20469;-66
2021/04/09 07:45:29;;;;;;;1999.90;999.90;;;9.50;99.90;;;;;;5051833;28;20822;-66
2021/04/09 07:48:02;;;;;;;1999.90;999.90;;;9.70;99.90;;;;;;5051894;28;20466;-66
2021/04/09 07:50:39;;;;;;;1999.90;999.90;;;9.90;99.90;;;;;;5052177;28;20417;-66
2021/04/09 07:53:06;;;;;;;1999.90;999.90;;;10.10;99.90;;;;;;5051866;28;20415;-66
2021/04/09 07:55:33;;;;;;;1999.90;999.90;;;10.20;99.90;;;;;;5051611;28;20496;-65
2021/04/09 07:58:15;;;;;;;1999.90;999.90;;;10.40;99.90;;;;;;5051593;28;20428;-65
2021/04/09 08:00:41;;;;;;;1999.90;999.90;;;10.60;99.90;;;;;;5051787;28;20445;-65
2021/04/09 08:03:06;;;;;;;1999.90;999.90;;;10.80;99.90;;;;;;5051760;28;20938;-65
2021/04/09 08:05:32;;;;;;;1999.90;999.90;;;10.90;99.90;;;;;;5051508;28;20451;-67
2021/04/09 08:07:58;;;;;;;1999.90;999.90;;;11.00;99.90;;;;;;5051741;28;20210;-68
2021/04/09 08:10:30;;;;;;;1999.90;999.90;;;11.10;99.90;;;;;;5051878;28;20198;-68
2021/04/09 08:12:56;;;;;;;1999.90;999.90;;;11.30;99.90;;;;;;5051849;28;20184;-68
2021/04/09 08:15:24;;;;;;;1999.90;999.90;;;11.50;99.90;;;;;;5051488;28;20412;-68
2021/04/09 08:17:58;;;;;;;1999.90;999.90;;;11.60;99.90;;;;;;5051625;28;20580;-66
2021/04/09 08:20:25;;;;;;;1999.90;999.90;;;11.80;99.90;;;;;;5051623;28;20449;-68
2021/04/09 08:22:51;;;;;;;1999.90;999.90;;;11.90;99.90;;;;;;5051703;28;20410;-67
2021/04/09 08:25:18;;;;;;;1999.90;999.90;;;12.00;99.90;;;;;;5051349;28;20413;-65
2021/04/09 08:27:44;;;;;;;1999.90;999.90;;;12.00;99.90;;;;;;5051618;28;20425;-68
2021/04/09 08:30:11;;;;;;;1999.90;999.90;;;11.80;99.90;;;;;;5051629;28;20413;-67
2021/04/09 08:32:37;;;;;;;1999.90;999.90;;;11.80;99.90;;;;;;5051477;28;20441;-68
2021/04/09 08:35:05;;;;;;;1999.90;999.90;;;11.90;99.90;;;;;;5051289;28;20406;-68
2021/04/09 08:37:31;;;;;;;1999.90;999.90;;;11.90;99.90;;;;;;5051436;28;20458;-65
2021/04/09 08:39:57;;;;;;;1999.90;999.90;;;12.00;99.90;;;;;;5051557;28;21085;-67
2021/04/09 08:42:23;;;;;;;1999.90;999.90;;;12.10;99.90;;;;;;5051451;28;20441;-67
2021/04/09 08:44:48;;;;;;;1999.90;999.90;;;12.10;99.90;;;;;;5051226;28;20262;-66
2021/04/09 08:47:20;;;;;;;1999.90;999.90;;;12.10;99.90;;;;;;5051140;28;20282;-67
2021/04/09 08:49:46;;;;;;;1999.90;999.90;;;12.10;99.90;;;;;;5051433;28;20421;-67
2021/04/09 08:52:14;;;;;;;1999.90;999.90;;;12.10;99.90;;;;;;5051599;28;20414;-67
2021/04/09 08:54:51;;;;;;;1999.90;999.90;;;12.20;99.90;;;;;;5051227;28;20467;-66
2021/04/09 08:57:33;;;;;;;1999.90;999.90;;;12.00;99.90;;;;;;5051277;28;20432;-66
2021/04/09 09:00:14;;;;;;;1999.90;999.90;;;12.10;99.90;;;;;;5051282;28;20472;-67
2021/04/09 09:02:40;;;;;;;1999.90;999.90;;;12.10;99.90;;;;;;5051415;28;20502;-67
2021/04/09 09:05:12;;;;;;;1999.90;999.90;;;12.10;99.90;;;;;;5051148;28;20492;-67
2021/04/09 09:07:43;;;;;;;1999.90;999.90;;;12.20;99.90;;;;;;5051273;28;20195;-67
2021/04/09 09:10:21;;;;;;;1999.90;999.90;;;12.30;99.90;;;;;;5054411;28;20418;-66
2021/04/09 09:13:12;;;;;;;1999.90;999.90;;;12.50;99.90;;;;;;5054817;28;20468;-67
2021/04/09 09:15:43;;;;;;;1999.90;999.90;;;12.50;99.90;;;;;;5054361;28;20418;-67
2021/04/09 09:18:31;;;;;;;1999.90;999.90;;;12.60;99.90;;;;;;5054742;28;20400;-66
2021/04/09 09:21:15;;;;;;;1999.90;999.90;;;12.60;99.90;;;;;;5054909;28;20539;-67
2021/04/09 09:23:51;;;;;;;1999.90;999.90;;;12.60;99.90;;;;;;5054793;28;20442;-66
2021/04/09 09:26:20;;;;;;;1999.90;999.90;;;12.70;99.90;;;;;;5054333;28;20461;-66
2021/04/09 09:28:48;;;;;;;1999.90;999.90;;;12.70;99.90;;;;;;5054466;28;20497;-66
2021/04/09 09:31:33;;;;;;;1999.90;999.90;;;12.60;99.90;;;;;;5054690;28;20539;-66
2021/04/09 09:34:17;;;;;;;1999.90;999.90;;;12.70;99.90;;;;;;5054553;28;20402;-66
2021/04/09 09:37:13;;;;;;;1999.90;999.90;;;12.90;99.90;;;;;;5054024;28;20458;-66
2021/04/09 09:39:43;;;;;;;1999.90;999.90;;;12.90;99.90;;;;;;5054481;28;20445;-66
2021/04/09 09:42:28;;;;;;;1999.90;999.90;;;12.70;99.90;;;;;;5054308;28;20894;-66
2021/04/09 09:44:59;;;;;;;1999.90;999.90;;;12.70;99.90;;;;;;5053957;28;20390;-66
2021/04/09 09:47:32;;;;;;;1999.90;999.90;;;12.80;99.90;;;;;;5045990;28;20451;-68
2021/04/09 09:50:01;;;;;;;1999.90;999.90;;;13.00;99.90;;;;;;5050745;28;20416;-67
2021/04/09 09:52:46;;;;;;;1999.90;999.90;;;13.00;99.90;;;;;;5051224;28;20409;-68
2021/04/09 09:55:36;;;;;;;1999.90;999.90;;;13.00;99.90;;;;;;5050554;28;20439;-68
2021/04/09 09:58:09;;;;;;;1999.90;999.90;;;13.10;99.90;;;;;;5050649;28;20425;-68
2021/04/09 10:00:56;;;;;;;1999.90;999.90;;;13.30;99.90;;;;;;5050755;28;20531;-68
2021/04/09 10:03:32;;;;;;;1999.90;999.90;;;13.20;99.90;;;;;;5049990;28;20472;-67
2021/04/09 10:06:00;;;;;;;1999.90;999.90;;;13.20;99.90;;;;;;5049317;28;20511;-67
2021/04/09 10:08:27;;;;;;;1999.90;999.90;;;13.30;99.90;;;;;;5051582;28;20449;-68
2021/04/09 10:11:03;;;;;;;1999.90;999.90;;;13.30;99.90;;;;;;5052564;28;20429;-68
2021/04/09 10:13:36;;;;;;;1999.90;999.90;;;13.60;99.90;;;;;;5051751;28;20410;-68
2021/04/09 10:16:12;;;;;;;1999.90;999.90;;;13.80;99.90;;;;;;5051204;28;20428;-69
2021/04/09 10:18:40;;;;;;;1999.90;999.90;;;13.80;99.90;;;;;;5052063;28;20420;-69
2021/04/09 10:21:16;;;;;;;1999.90;999.90;;;13.90;99.90;;;;;;5051968;28;20408;-68
2021/04/09 10:23:42;;;;;;;1999.90;999.90;;;14.00;99.90;;;;;;5051673;28;20406;-68
2021/04/09 10:26:08;;;;;;;1999.90;999.90;;;14.10;99.90;;;;;;5050561;28;20422;-68
2021/04/09 10:28:36;;;;;;;1999.90;999.90;;;14.20;99.90;;;;;;5051650;28;20435;-66
2021/04/09 10:31:19;;;;;;;1999.90;999.90;;;14.00;99.90;;;;;;5051406;28;20415;-67
2021/04/09 10:33:47;;;;;;;1999.90;999.90;;;14.00;99.90;;;;;;5051148;28;20921;-67
2021/04/09 10:36:15;;;;;;;1999.90;999.90;;;14.10;99.90;;;;;;5051202;28;20441;-66
2021/04/09 10:38:41;;;;;;;1999.90;999.90;;;14.30;99.90;;;;;;5051223;28;20410;-66
2021/04/09 10:41:07;;;;;;;1999.90;999.90;;;14.50;99.90;;;;;;5051759;28;20406;-67
2021/04/09 10:43:35;;;;;;;1999.90;999.90;;;14.60;99.90;;;;;;5051616;28;20610;-72
2021/04/09 10:46:09;;;;;;;1999.90;999.90;;;14.80;99.90;;;;;;5050181;28;20214;-66
2021/04/09 10:48:36;;;;;;;1999.90;999.90;;;14.70;99.90;;;;;;5051330;28;20392;-66
2021/04/09 10:51:02;;;;;;;1999.90;999.90;;;14.50;99.90;;;;;;5051511;28;20455;-67
2021/04/09 10:53:27;;;;;;;1999.90;999.90;;;14.60;99.90;;;;;;5050351;28;20436;-66
2021/04/09 10:56:00;;;;;;;1999.90;999.90;;;14.70;99.90;;;;;;5050800;28;20969;-66
2021/04/09 10:58:25;;;;;;;1999.90;999.90;;;14.80;99.90;;;;;;5051153;28;20149;-67
2021/04/09 11:00:51;;;;;;;1999.90;999.90;;;14.90;99.90;;;;;;5050512;28;20467;-66
2021/04/09 11:03:17;;;;;;;1999.90;999.90;;;14.70;99.90;;;;;;5051295;28;20173;-66
2021/04/09 11:05:42;;;;;;;1999.90;999.90;;;14.70;99.90;;;;;;5050529;28;20172;-66
2021/04/09 11:08:08;;;;;;;1999.90;999.90;;;14.60;99.90;;;;;;5050834;28;20256;-66
2021/04/09 11:10:35;;;;;;;1999.90;999.90;;;14.90;99.90;;;;;;5051270;28;20171;-66
2021/04/09 11:13:02;;;;;;;1999.90;999.90;;;14.90;99.90;;;;;;5050577;28;20179;-66
2021/04/09 11:15:41;;;;;;;1999.90;999.90;;;14.80;99.90;;;;;;5050119;28;20489;-66
2021/04/09 11:18:07;;;;;;;1999.90;999.90;;;14.80;99.90;;;;;;5051052;28;20959;-66
2021/04/09 11:20:35;;;;;;;1999.90;999.90;;;15.10;99.90;;;;;;5050971;28;20449;-66
2021/04/09 11:23:05;;;;;;;1999.90;999.90;;;15.00;99.90;;;;;;5050569;28;20171;-66
2021/04/09 11:25:42;;;;;;;1999.90;999.90;;;15.10;99.90;;;;;;5051252;28;20444;-66
2021/04/09 11:28:24;;;;;;;1999.90;999.90;;;15.20;99.90;;;;;;5050760;28;20482;-66
2021/04/09 11:31:01;;;;;;;1999.90;999.90;;;15.00;99.90;;;;;;5049392;28;20407;-66
2021/04/09 11:33:40;;;;;;;1999.90;999.90;;;14.90;99.90;;;;;;5049592;28;20410;-66
2021/04/09 11:36:21;;;;;;;1999.90;999.90;;;15.00;99.90;;;;;;5049739;28;20871;-66
2021/04/09 11:39:03;;;;;;;1999.90;999.90;;;15.20;99.90;;;;;;5050029;28;20809;-66
2021/04/09 11:41:32;;;;;;;1999.90;999.90;;;15.40;99.90;;;;;;5050644;28;20478;-66
2021/04/09 11:43:58;;;;;;;1999.90;999.90;;;15.30;99.90;;;;;;5050285;28;20468;-66
2021/04/09 11:46:34;;;;;;;1999.90;999.90;;;15.20;99.90;;;;;;5049612;28;20471;-66
2021/04/09 11:49:04;;;;;;;1999.90;999.90;;;15.00;99.90;;;;;;5050415;28;20545;-66
2021/04/09 11:51:30;;;;;;;1999.90;999.90;;;15.20;99.90;;;;;;5050438;28;20409;-66
2021/04/09 11:54:21;;;;;;;1999.90;999.90;;;15.60;99.90;;;;;;5049874;28;20417;-66
2021/04/09 11:56:48;;;;;;;1999.90;999.90;;;16.00;99.90;;;;;;5049074;28;20444;-66
2021/04/09 11:59:16;;;;;;;1999.90;999.90;;;15.90;99.90;;;;;;5049409;28;20465;-67
2021/04/09 12:01:43;;;;;;;1999.90;999.90;;;16.00;99.90;;;;;;5050116;28;20399;-66
2021/04/09 12:04:30;;;;;;;1999.90;999.90;;;15.90;99.90;;;;;;5049666;28;20931;-66
2021/04/09 12:06:56;;;;;;;1999.90;999.90;;;16.20;99.90;;;;;;5048843;28;20518;-66
2021/04/09 12:09:21;;;;;;;1999.90;999.90;;;16.50;99.90;;;;;;5050030;28;20491;-66
2021/04/09 12:11:47;;;;;;;1999.90;999.90;;;17.00;99.90;;;;;;5050200;28;20180;-66
2021/04/09 12:14:12;;;;;;;1999.90;999.90;;;17.60;99.90;;;;;;5049279;28;20180;-66